Time;durP1;ratioP1;P1;durP2;ratioP2;P2;SDS_P1;SDS_P2;PMS_P1;PMS_P2;Temp;Humidity;BMP_temperature;BMP_pressure;BME280_temperature;BME280_humidity;BME280_pressure;Samples;Min_cycle;Max_cycle;Signal;HPM_P1;HPM_P2
2021/03/01 00:00:14;;;;;;;65.75;28.77;;;3.70;99.90;;;4.78;95.46;102531.03;5062684;28;20033;-80
2021/03/01 00:02:42;;;;;;;69.57;29.70;;;3.70;99.90;;;4.69;95.45;102527.13;5050904;28;20037;-80
2021/03/01 00:05:11;;;;;;;56.97;26.90;;;3.70;99.90;;;4.70;95.23;102534.34;5041570;28;20034;-83
2021/03/01 00:07:37;;;;;;;56.53;27.80;;;3.70;99.90;;;4.76;95.17;102533.25;5042127;28;20061;-83
2021/03/01 00:10:06;;;;;;;68.25;27.48;;;3.70;99.90;;;4.56;95.87;102532.38;5058553;28;20033;-81
2021/03/01 00:12:33;;;;;;;52.97;25.65;;;3.70;99.90;;;4.78;95.32;102530.22;5049619;28;20521;-81
2021/03/01 00:14:59;;;;;;;53.20;26.13;;;3.70;99.90;;;4.76;95.04;102533.25;5049595;28;20033;-82
2021/03/01 00:17:26;;;;;;;53.83;26.58;;;3.70;99.90;;;4.82;95.39;102533.28;5040064;28;20030;-83
2021/03/01 00:19:52;;;;;;;57.78;26.67;;;3.70;99.90;;;4.62;95.86;102526.56;5046468;28;20137;-83
2021/03/01 00:22:18;;;;;;;61.38;27.77;;;3.70;99.90;;;4.76;95.50;102524.94;5027126;28;20473;-83
2021/03/01 00:24:44;;;;;;;54.92;25.27;;;3.70;99.90;;;4.72;95.59;102528.53;5039438;28;20029;-83
2021/03/01 00:27:10;;;;;;;59.10;26.92;;;3.70;99.90;;;4.77;95.81;102523.84;5041465;28;20073;-83
2021/03/01 00:29:36;;;;;;;81.10;27.92;;;3.70;99.90;;;4.72;95.09;102518.28;5042385;28;20040;-83
2021/03/01 00:32:03;;;;;;;63.50;28.30;;;3.70;99.90;;;4.75;95.58;102523.28;5048348;28;20033;-82
2021/03/01 00:34:29;;;;;;;73.72;29.38;;;3.70;99.90;;;4.61;96.29;102515.78;5042293;28;20021;-82
2021/03/01 00:36:55;;;;;;;63.22;27.77;;;3.70;99.90;;;4.61;95.77;102521.31;5039655;28;20029;-83
2021/03/01 00:39:21;;;;;;;74.97;29.27;;;3.70;99.90;;;4.64;95.93;102518.84;5051836;28;20056;-82
2021/03/01 00:41:47;;;;;;;74.60;30.83;;;3.70;99.90;;;4.54;96.62;102523.50;5038725;28;20040;-83
2021/03/01 00:44:13;;;;;;;72.13;27.63;;;3.70;99.90;;;4.72;95.90;102521.06;5044074;28;20034;-82
2021/03/01 00:46:39;;;;;;;68.85;30.42;;;3.70;99.90;;;4.76;95.78;102529.66;5038999;28;20114;-82
2021/03/01 00:49:04;;;;;;;68.10;29.70;;;3.70;99.90;;;4.78;96.04;102519.94;5052583;28;20554;-83
2021/03/01 00:51:32;;;;;;;71.55;31.45;;;3.70;99.90;;;4.74;95.99;102521.63;5054742;28;20068;-82
2021/03/01 00:53:58;;;;;;;71.03;29.45;;;3.70;99.90;;;4.83;96.06;102523.84;5035361;28;20038;-83
2021/03/01 00:56:24;;;;;;;70.22;31.55;;;3.70;99.90;;;4.66;96.67;102526.84;5036117;28;20087;-82
2021/03/01 00:58:50;;;;;;;64.88;29.60;;;3.70;99.90;;;4.63;97.52;102521.84;5046800;28;20445;-82
2021/03/01 01:01:16;;;;;;;64.53;29.42;;;3.70;99.90;;;4.76;96.42;102515.81;5056430;28;20030;-83
2021/03/01 01:03:42;;;;;;;76.38;29.52;;;3.70;99.90;;;4.65;96.35;102519.66;5040980;28;20025;-83
2021/03/01 01:06:08;;;;;;;64.90;25.77;;;3.80;99.90;;;4.63;96.63;102516.31;5042872;28;20034;-82
2021/03/01 01:08:34;;;;;;;67.13;27.38;;;3.70;99.90;;;4.62;96.42;102518.25;5044734;28;20033;-83
2021/03/01 01:11:00;;;;;;;61.88;26.45;;;3.70;99.90;;;4.62;96.59;102518.25;5053940;28;20180;-83
2021/03/01 01:13:27;;;;;;;61.90;26.05;;;3.70;99.90;;;4.47;96.96;102522.91;5057043;28;20028;-83
2021/03/01 01:15:52;;;;;;;69.43;26.60;;;3.60;99.90;;;4.48;96.59;102517.13;5045852;28;20046;-83
2021/03/01 01:18:18;;;;;;;63.40;25.77;;;3.60;99.90;;;4.46;96.61;102522.13;5055136;28;20115;-82
2021/03/01 01:20:44;;;;;;;63.63;27.40;;;3.60;99.90;;;4.54;96.90;102520.72;5037952;28;20393;-83
2021/03/01 01:23:10;;;;;;;61.95;27.48;;;3.50;99.90;;;4.50;97.50;102527.91;5041477;28;20052;-82
2021/03/01 01:25:36;;;;;;;63.53;27.83;;;3.50;99.90;;;4.51;97.42;102516.59;5039989;28;20056;-82
2021/03/01 01:28:02;;;;;;;73.22;29.55;;;3.60;99.90;;;4.63;96.41;102522.69;5042148;28;20076;-82
2021/03/01 01:30:29;;;;;;;68.13;27.52;;;3.60;99.90;;;4.38;97.53;102513.50;5040796;28;20438;-83
2021/03/01 01:32:55;;;;;;;78.28;29.60;;;3.50;99.90;;;4.52;97.20;102515.50;5037783;28;20040;-83
2021/03/01 01:35:22;;;;;;;74.90;30.85;;;3.60;99.90;;;4.55;97.41;102506.63;5037680;28;20026;-83
2021/03/01 01:37:49;;;;;;;81.18;28.98;;;3.60;99.90;;;4.62;97.06;102509.94;5044854;28;20025;-82
2021/03/01 01:40:21;;;;;;;70.55;29.77;;;3.60;99.90;;;4.73;96.37;102499.75;5042901;28;20029;-81
2021/03/01 01:42:49;;;;;;;66.68;28.33;;;3.60;99.90;;;4.65;97.24;102490.06;5047894;28;20028;-82
2021/03/01 01:45:22;;;;;;;85.20;32.33;;;3.60;99.90;;;4.69;96.97;102490.31;5048441;28;20040;-83
2021/03/01 01:47:51;;;;;;;76.70;29.70;;;3.70;99.90;;;4.78;96.78;102499.78;5053138;28;20028;-81
2021/03/01 01:50:24;;;;;;;70.25;29.35;;;3.70;99.90;;;4.82;96.65;102502.81;5049020;28;20040;-80
2021/03/01 01:52:54;;;;;;;82.03;29.67;;;3.70;99.90;;;4.68;96.74;102494.22;5048130;28;20067;-84
2021/03/01 01:55:22;;;;;;;71.05;27.98;;;3.70;99.90;;;4.64;97.18;102493.91;5049471;28;20112;-83
2021/03/01 01:57:48;;;;;;;73.35;27.85;;;3.70;99.90;;;4.68;97.10;102488.66;5040292;28;20048;-82
2021/03/01 02:03:24;;;;;;;67.38;27.67;;;3.70;99.90;;;4.73;97.19;102489.50;5055656;28;20039;-81
2021/03/01 02:06:44;;;;;;;74.78;28.48;;;3.70;99.90;;;4.63;96.72;102486.72;5043164;28;20051;-83
2021/03/01 02:09:44;;;;;;;74.30;28.50;;;3.60;99.90;;;4.59;96.83;102476.47;5024230;28;20388;-83
2021/03/01 02:12:21;;;;;;;82.95;27.52;;;3.60;99.90;;;4.59;96.97;102480.06;5032743;28;20021;-82
2021/03/01 02:15:21;;;;;;;72.15;29.25;;;3.60;99.90;;;4.66;97.14;102479.78;5045492;28;20031;-81
2021/03/01 02:17:47;;;;;;;75.47;28.08;;;3.60;99.90;;;4.78;96.60;102475.66;5064124;28;20379;-83
2021/03/01 02:20:13;;;;;;;69.75;27.92;;;3.70;99.90;;;4.75;96.63;102476.22;5050773;28;20033;-81
2021/03/01 02:22:40;;;;;;;79.35;28.50;;;3.70;99.90;;;4.64;97.35;102466.25;5048579;28;20432;-81
2021/03/01 02:25:17;;;;;;;70.00;28.92;;;3.70;99.90;;;4.54;97.72;102468.16;5042043;28;20041;-83
2021/03/01 02:28:00;;;;;;;71.65;29.83;;;3.60;99.90;;;4.71;96.67;102474.28;5046025;28;20041;-82
2021/03/01 02:30:34;;;;;;;69.63;27.38;;;3.60;99.90;;;4.70;96.73;102467.06;5058134;28;20041;-80
2021/03/01 02:33:08;;;;;;;72.32;27.58;;;3.70;99.90;;;4.68;96.59;102470.13;5047871;28;20037;-82
2021/03/01 02:35:46;;;;;;;72.55;27.95;;;3.60;99.90;;;4.61;96.76;102463.19;5044412;28;20385;-82
2021/03/01 02:38:15;;;;;;;74.32;28.05;;;3.60;99.90;;;4.46;97.63;102464.00;5049749;28;20040;-81
2021/03/01 02:40:42;;;;;;;77.53;29.20;;;3.60;99.90;;;4.62;96.95;102465.66;5051600;28;20031;-82
2021/03/01 02:43:12;;;;;;;64.10;26.35;;;3.60;99.90;;;4.65;96.47;102465.16;5043317;28;20032;-82
2021/03/01 02:45:42;;;;;;;58.30;27.25;;;3.60;99.90;;;4.72;96.11;102460.16;5039599;28;20485;-83
2021/03/01 02:48:11;;;;;;;71.80;25.77;;;3.60;99.90;;;4.62;96.75;102460.13;5041233;28;20495;-82
2021/03/01 02:50:39;;;;;;;73.65;27.30;;;3.60;99.90;;;4.63;96.53;102453.50;5048184;28;20040;-83
2021/03/01 02:53:05;;;;;;;66.22;27.50;;;3.60;99.90;;;4.62;96.91;102451.81;5057005;28;20033;-83
2021/03/01 02:55:37;;;;;;;66.03;26.75;;;3.60;99.90;;;4.65;96.73;102451.31;5038231;28;20049;-83
2021/03/01 02:58:04;;;;;;;75.18;25.67;;;3.60;99.90;;;4.50;97.10;102455.97;5042009;28;20068;-82
2021/03/01 03:00:31;;;;;;;76.53;26.77;;;3.60;99.90;;;4.55;97.01;102454.06;5056556;28;20071;-84
2021/03/01 03:02:57;;;;;;;66.78;26.88;;;3.50;99.90;;;4.61;96.99;102452.13;5055825;28;20036;-82
2021/03/01 03:05:26;;;;;;;60.30;26.38;;;3.50;99.90;;;4.71;96.58;102458.50;5040800;28;20097;-82
2021/03/01 03:07:54;;;;;;;62.92;25.48;;;3.60;99.90;;;4.71;96.60;102461.28;5042854;28;20087;-83
2021/03/01 03:10:21;;;;;;;66.53;25.48;;;3.60;99.90;;;4.63;96.96;102467.34;5055568;28;20025;-82
2021/03/01 03:12:48;;;;;;;67.18;26.77;;;3.60;99.90;;;4.57;97.13;102462.91;5046973;28;20037;-82
2021/03/01 03:15:24;;;;;;;60.75;25.85;;;3.50;99.90;;;4.65;96.75;102453.25;5059708;28;20025;-82
2021/03/01 03:17:52;;;;;;;66.90;24.20;;;3.60;99.90;;;4.64;96.22;102457.09;5055345;28;20049;-82
2021/03/01 03:20:19;;;;;;;57.92;24.52;;;3.60;99.90;;;4.55;96.53;102462.34;5044532;28;20021;-82
2021/03/01 03:22:45;;;;;;;58.67;25.38;;;3.60;99.90;;;4.68;96.19;102452.69;5056898;28;20064;-83
2021/03/01 03:25:15;;;;;;;58.13;25.10;;;3.60;99.90;;;4.63;95.92;102456.28;5038608;28;20033;-83
2021/03/01 03:27:40;;;;;;;57.08;22.70;;;3.50;99.90;;;4.55;96.46;102442.97;5038455;28;20143;-82
2021/03/01 03:30:21;;;;;;;54.25;22.83;;;3.50;99.90;;;4.60;96.40;102440.22;5044651;28;20480;-83
2021/03/01 03:32:49;;;;;;;61.13;25.02;;;3.50;99.90;;;4.63;96.04;102439.66;5046710;28;20025;-82
2021/03/01 03:35:15;;;;;;;64.00;25.27;;;3.50;99.90;;;4.57;96.71;102439.94;5040964;28;20057;-82
2021/03/01 03:38:24;;;;;;;66.75;25.98;;;3.50;99.90;;;4.58;96.53;102436.06;5037037;28;20524;-83
2021/03/01 03:40:59;;;;;;;74.55;26.85;;;3.50;99.90;;;4.50;97.17;102442.97;5044900;28;20087;-82
2021/03/01 03:43:28;;;;;;;80.00;27.52;;;3.50;99.90;;;4.53;97.37;102433.28;5061879;28;20021;-81
2021/03/01 03:46:00;;;;;;;66.35;27.02;;;3.50;99.90;;;4.53;97.09;102439.66;5041189;28;20025;-81
2021/03/01 03:48:28;;;;;;;76.25;27.67;;;3.60;99.90;;;4.55;96.84;102428.31;5042598;28;20713;-82
2021/03/01 03:50:59;;;;;;;72.32;27.02;;;3.50;99.90;;;4.68;96.36;102436.91;5041563;28;20025;-82
2021/03/01 03:53:32;;;;;;;74.13;28.58;;;3.60;99.90;;;4.73;96.83;102444.38;5045253;28;20017;-81
2021/03/01 03:56:02;;;;;;;67.68;26.23;;;3.60;99.90;;;4.67;96.63;102446.31;5044627;28;20033;-84
2021/03/01 03:58:35;;;;;;;67.88;25.92;;;3.60;99.90;;;4.44;97.46;102438.53;5045595;28;20021;-82
2021/03/01 04:01:04;;;;;;;71.05;27.80;;;3.60;99.90;;;4.51;97.44;102447.41;5048772;28;20021;-84
2021/03/01 04:03:35;;;;;;;75.32;27.95;;;3.50;99.90;;;4.56;97.37;102439.09;5053218;28;20025;-83
2021/03/01 04:06:03;;;;;;;75.22;27.35;;;3.50;99.90;;;4.63;97.07;102434.13;5043227;28;20548;-82
2021/03/01 04:08:32;;;;;;;79.90;27.33;;;3.60;99.90;;;4.48;97.47;102445.19;5047176;28;20090;-83
2021/03/01 04:11:01;;;;;;;81.35;27.55;;;3.50;99.90;;;4.49;97.51;102443.25;5055208;28;20037;-81
2021/03/01 04:13:32;;;;;;;66.25;26.60;;;3.50;99.90;;;4.59;97.15;102446.84;5044970;28;20614;-83
2021/03/01 04:15:58;;;;;;;67.70;27.05;;;3.50;99.90;;;4.66;96.65;102444.66;5035989;28;20029;-82
2021/03/01 04:18:34;;;;;;;80.57;29.90;;;3.50;99.90;;;4.70;97.04;102451.28;5042915;28;20018;-82
2021/03/01 04:21:07;;;;;;;76.40;28.95;;;3.60;99.90;;;4.77;97.40;102451.88;5041304;28;20021;-84
2021/03/01 04:23:37;;;;;;;86.15;29.83;;;3.60;99.90;;;4.79;97.30;102452.41;5046125;28;20060;-82
2021/03/01 04:26:06;;;;;;;81.78;31.98;;;3.60;99.90;;;4.82;97.05;102452.97;5052317;28;20512;-81
2021/03/01 04:28:33;;;;;;;74.70;28.13;;;3.70;99.90;;;4.76;97.13;102444.66;5057653;28;20545;-83
2021/03/01 04:31:07;;;;;;;70.80;27.70;;;3.60;99.90;;;4.76;97.34;102449.34;5039162;28;20033;-82
2021/03/01 04:33:36;;;;;;;69.78;27.60;;;3.70;99.90;;;4.72;97.28;102443.53;5051442;28;20025;-81
2021/03/01 04:36:05;;;;;;;72.95;29.58;;;3.70;99.90;;;4.70;97.16;102445.75;5039772;28;20037;-82
2021/03/01 04:38:35;;;;;;;77.15;29.10;;;3.60;99.90;;;4.77;97.21;102451.03;5037732;28;20028;-82
2021/03/01 04:41:04;;;;;;;71.90;27.30;;;3.70;99.90;;;4.69;97.42;102449.63;5044085;28;20021;-82
2021/03/01 04:43:36;;;;;;;74.78;27.33;;;3.70;99.90;;;4.77;97.93;102454.63;5046070;28;20071;-80
2021/03/01 04:46:05;;;;;;;62.08;25.40;;;3.70;99.90;;;4.73;97.14;102452.69;5047984;28;20052;-83
2021/03/01 04:48:32;;;;;;;57.75;25.15;;;3.70;99.90;;;4.67;96.78;102446.31;5038947;28;20029;-83
2021/03/01 04:51:01;;;;;;;61.88;23.23;;;3.60;99.90;;;4.47;96.94;102445.44;5054441;28;20040;-83
2021/03/01 04:53:33;;;;;;;52.33;23.48;;;3.50;99.90;;;4.39;97.09;102437.69;5037588;28;20016;-82
2021/03/01 04:56:04;;;;;;;49.33;23.38;;;3.50;99.90;;;4.45;96.92;102451.25;5063675;28;20124;-79
2021/03/01 04:58:32;;;;;;;55.08;24.55;;;3.40;99.90;;;4.47;96.80;102456.50;5036132;28;20044;-81
2021/03/01 05:01:04;;;;;;;60.30;23.58;;;3.40;99.90;;;4.39;97.08;102448.75;5036201;28;20075;-81
2021/03/01 05:03:33;;;;;;;58.60;23.73;;;3.40;99.90;;;4.45;97.42;102447.66;5039717;28;20025;-80
2021/03/01 05:06:01;;;;;;;48.60;22.25;;;3.40;99.90;;;4.53;96.83;102458.19;5035409;28;20512;-80
2021/03/01 05:08:29;;;;;;;54.85;23.17;;;3.40;99.90;;;4.36;97.30;102450.16;5035661;28;20029;-80
2021/03/01 05:10:57;;;;;;;50.33;21.95;;;3.40;99.90;;;4.24;97.66;102452.28;5034105;28;20094;-80
2021/03/01 05:13:24;;;;;;;50.70;21.88;;;3.30;99.90;;;4.22;97.50;102452.59;5056446;28;20025;-81
2021/03/01 05:15:50;;;;;;;50.83;22.92;;;3.30;99.90;;;4.28;97.35;102458.97;5036667;28;20508;-82
2021/03/01 05:18:17;;;;;;;55.28;21.10;;;3.30;99.90;;;4.29;97.21;102468.09;5040653;28;20051;-83
2021/03/01 05:20:43;;;;;;;51.40;22.23;;;3.30;99.90;;;4.26;97.24;102463.94;5038071;28;20025;-83
2021/03/01 05:23:09;;;;;;;67.55;23.25;;;3.30;99.90;;;4.30;97.71;102465.06;5044989;28;20500;-82
2021/03/01 05:25:35;;;;;;;64.13;23.52;;;3.30;99.90;;;4.24;97.74;102466.97;5039570;28;20029;-83
2021/03/01 05:28:01;;;;;;;59.50;22.75;;;3.30;99.90;;;4.34;97.50;102466.16;5035050;28;20033;-84
2021/03/01 05:30:33;;;;;;;58.75;22.88;;;3.30;99.90;;;4.19;97.89;102466.97;5041711;28;20026;-81
2021/03/01 05:33:05;;;;;;;61.22;23.38;;;3.30;99.90;;;4.17;98.17;102469.16;5039290;28;20041;-80
2021/03/01 05:36:13;;;;;;;54.92;23.23;;;3.30;99.90;;;4.11;98.35;102458.38;5057447;28;20068;-80
2021/03/01 05:38:39;;;;;;;60.17;22.15;;;3.30;99.90;;;4.08;97.96;102459.72;5059454;28;20025;-83
2021/03/01 05:41:07;;;;;;;50.88;22.95;;;3.20;99.90;;;4.13;97.75;102445.94;5046602;28;20029;-86
2021/03/01 05:43:33;;;;;;;53.75;21.92;;;3.20;99.90;;;4.18;97.58;102456.16;5047408;28;20332;-82
2021/03/01 05:46:00;;;;;;;58.70;22.60;;;3.20;99.90;;;4.00;98.00;102462.19;5038188;28;20099;-84
2021/03/01 05:48:29;;;;;;;60.08;22.08;;;3.20;99.90;;;4.01;98.47;102473.00;5048475;28;20021;-82
2021/03/01 05:51:03;;;;;;;68.85;23.42;;;3.20;99.90;;;4.07;98.70;102460.84;5040533;28;20032;-84
2021/03/01 05:53:36;;;;;;;59.92;22.52;;;3.20;99.90;;;4.15;98.33;102465.00;5043998;28;20472;-83
2021/03/01 05:56:04;;;;;;;58.50;22.33;;;3.20;99.90;;;4.13;97.99;102461.69;5036440;28;20068;-83
2021/03/01 05:58:33;;;;;;;63.88;23.88;;;3.20;99.90;;;4.09;98.34;102461.41;5055640;28;20565;-85
2021/03/01 06:01:05;;;;;;;51.83;21.63;;;3.20;99.90;;;4.21;97.44;102463.91;5044212;28;20036;-84
2021/03/01 06:03:34;;;;;;;61.03;24.23;;;3.20;99.90;;;4.25;97.31;102465.88;5056497;28;20442;-86
2021/03/01 06:06:02;;;;;;;57.80;23.48;;;3.20;99.90;;;4.20;97.98;102465.03;5040088;28;20072;-86
2021/03/01 06:08:31;;;;;;;59.85;24.10;;;3.20;99.90;;;4.38;97.79;102461.75;5060530;28;20025;-85
2021/03/01 06:11:06;;;;;;;63.10;24.25;;;3.30;99.90;;;4.32;97.98;102464.78;5050691;28;20105;-84
2021/03/01 06:13:33;;;;;;;;;;;3.30;99.90;;;4.47;97.28;102468.41;5038392;28;20026;-85
2021/03/01 06:16:03;;;;;;;80.10;23.73;;;3.40;99.90;;;4.39;96.91;102466.19;5043591;28;19913;-85
2021/03/01 06:18:31;;;;;;;60.33;24.55;;;3.40;99.90;;;4.40;97.14;102465.06;5054394;28;20029;-83
2021/03/01 06:21:18;;;;;;;73.93;25.75;;;3.30;99.90;;;4.35;97.94;102475.31;5056646;28;20020;-83
2021/03/01 06:23:45;;;;;;;70.97;23.77;;;3.30;99.90;;;4.30;97.61;102467.84;5056324;28;20136;-83
2021/03/01 06:26:33;;;;;;;59.28;22.65;;;3.40;99.90;;;4.22;98.37;102468.34;5039775;28;20021;-81
2021/03/01 06:29:04;;;;;;;62.42;23.23;;;3.30;99.90;;;4.13;98.70;102478.28;5037809;28;20033;-83
2021/03/01 06:31:46;;;;;;;63.20;24.63;;;3.30;99.90;;;4.23;98.55;102472.78;5050234;28;20480;-82
2021/03/01 06:34:30;;;;;;;56.95;23.25;;;3.30;99.90;;;4.24;97.91;102480.78;5038499;28;20043;-83
2021/03/01 06:37:09;;;;;;;76.82;25.15;;;3.30;99.90;;;4.26;97.66;102480.53;5071326;28;20084;-82
2021/03/01 06:39:48;;;;;;;68.68;24.25;;;3.30;99.90;;;4.28;98.33;102478.31;5057663;28;20025;-82
2021/03/01 06:42:29;;;;;;;64.85;25.55;;;3.30;99.90;;;4.20;98.55;102493.53;5046394;28;20040;-83
2021/03/01 06:44:59;;;;;;;67.38;24.17;;;3.30;99.90;;;4.21;98.11;102488.81;5058678;28;20029;-82
2021/03/01 06:47:52;;;;;;;69.95;23.65;;;3.30;99.90;;;3.96;98.92;102495.06;5046852;28;20033;-83
2021/03/01 06:50:45;;;;;;;73.88;22.42;;;3.20;99.90;;;3.83;98.90;102492.78;5037757;28;20049;-84
2021/03/01 06:53:11;;;;;;;56.55;21.52;;;3.10;99.90;;;3.98;98.82;102498.38;5047589;28;20052;-82
2021/03/01 06:56:05;;;;;;;47.05;20.52;;;3.10;99.90;;;4.06;97.77;102483.22;5038390;28;20030;-84
2021/03/01 06:58:43;;;;;;;63.20;22.35;;;3.10;99.90;;;4.10;98.25;102489.88;5044256;28;20028;-81
2021/03/01 07:01:24;;;;;;;50.42;22.20;;;3.20;99.90;;;4.28;97.50;102488.56;5038735;28;20049;-82
2021/03/01 07:04:01;;;;;;;56.15;22.20;;;3.20;99.90;;;4.33;97.32;102486.66;5036836;28;20022;-81
2021/03/01 07:06:35;;;;;;;63.53;22.73;;;3.30;99.90;;;4.39;97.52;102479.19;5037480;28;20033;-82
2021/03/01 07:09:01;;;;;;;51.97;22.63;;;3.30;99.90;;;4.35;97.76;102469.75;5041213;28;20065;-82
2021/03/01 07:11:32;;;;;;;59.03;21.65;;;3.30;99.90;;;4.39;97.34;102481.97;5041357;28;20403;-82
2021/03/01 07:14:04;;;;;;;53.15;21.02;;;3.30;99.90;;;4.32;97.19;102479.44;5049963;28;20064;-84
2021/03/01 07:16:52;;;;;;;48.55;21.63;;;3.40;99.90;;;4.44;97.21;102476.44;5030501;28;20087;-84
2021/03/01 07:19:20;;;;;;;58.67;20.13;;;3.40;99.90;;;4.20;97.94;102487.16;5066288;28;20026;-84
2021/03/01 07:22:00;;;;;;;54.15;21.20;;;3.30;99.90;;;4.22;97.74;102487.72;5039928;28;20391;-82
2021/03/01 07:24:29;;;;;;;44.92;19.55;;;3.20;99.90;;;4.06;97.84;102486.00;5036860;28;20423;-82
2021/03/01 07:27:04;;;;;;;45.78;17.77;;;3.30;99.90;;;4.22;97.10;102488.53;5037041;28;20033;-81
2021/03/01 07:29:34;;;;;;;51.35;20.63;;;3.20;99.90;;;4.24;97.54;102486.34;5037886;28;20033;-82
2021/03/01 07:32:07;;;;;;;56.53;19.85;;;3.20;99.90;;;4.17;97.21;102488.50;5054028;28;20073;-84
2021/03/01 07:34:36;;;;;;;50.60;20.02;;;3.30;99.90;;;4.19;97.88;102493.78;5050393;28;20029;-82
2021/03/01 07:37:04;;;;;;;50.75;19.30;;;3.20;99.90;;;4.23;97.35;102483.84;5037013;28;20057;-83
2021/03/01 07:39:33;;;;;;;46.38;19.10;;;3.30;99.90;;;4.15;97.71;102487.13;5035542;28;20029;-81
2021/03/01 07:42:00;;;;;;;58.17;20.00;;;3.30;99.90;;;4.22;98.05;102491.31;5054421;28;20040;-83
2021/03/01 07:44:32;;;;;;;49.28;21.05;;;3.30;99.90;;;4.33;97.54;102494.94;5060116;28;20048;-83
2021/03/01 07:47:03;;;;;;;55.22;21.58;;;3.40;99.90;;;4.27;98.22;102490.47;5039697;28;20049;-81
2021/03/01 07:49:49;;;;;;;50.20;21.67;;;3.40;99.90;;;4.42;97.93;102487.78;5044279;28;20025;-81
2021/03/01 07:52:18;;;;;;;51.63;21.00;;;3.50;99.90;;;4.40;97.75;102495.50;5042319;28;20075;-83
2021/03/01 07:55:12;;;;;;;48.88;19.95;;;3.50;99.90;;;4.55;97.74;102487.25;5055788;28;20033;-81
2021/03/01 07:57:40;;;;;;;46.60;21.42;;;3.50;99.90;;;4.57;97.08;102484.22;5051401;28;20100;-83
2021/03/01 08:00:30;;;;;;;47.60;20.55;;;3.60;99.90;;;4.62;96.77;102487.81;5042730;28;20437;-84
2021/03/01 08:02:58;;;;;;;54.10;19.40;;;3.60;99.90;;;4.49;96.43;102499.44;5040584;28;20385;-85
2021/03/01 08:05:33;;;;;;;39.38;18.77;;;3.60;99.90;;;4.51;96.79;102493.59;5038936;28;20029;-82
2021/03/01 08:08:00;;;;;;;44.43;20.17;;;3.50;99.90;;;4.55;96.84;102498.34;5051093;28;20033;-84
2021/03/01 08:10:29;;;;;;;44.83;19.27;;;3.60;99.90;;;4.70;96.67;102495.59;5047545;28;20263;-82
2021/03/01 08:13:12;;;;;;;37.50;18.60;;;3.60;99.90;;;4.78;96.06;102494.22;5046976;28;20021;-81
2021/03/01 08:15:43;;;;;;;46.03;19.67;;;3.60;99.90;;;4.50;96.64;102490.00;5042023;28;20025;-82
2021/03/01 08:18:13;;;;;;;52.15;19.05;;;3.60;99.90;;;4.54;96.28;102488.38;5065970;28;20111;-81
2021/03/01 08:20:54;;;;;;;49.55;18.75;;;3.60;99.90;;;4.41;96.81;102483.34;5053220;28;20017;-82
2021/03/01 08:23:29;;;;;;;46.63;20.50;;;3.60;99.90;;;4.33;97.27;102483.88;5044764;28;20025;-84
2021/03/01 08:25:58;;;;;;;49.17;20.05;;;3.50;99.90;;;4.55;97.41;102495.56;5036326;28;20504;-83
2021/03/01 08:28:24;;;;;;;43.30;20.13;;;3.60;99.90;;;4.74;96.61;102490.34;5040139;28;20028;-82
2021/03/01 08:30:55;;;;;;;50.22;21.50;;;3.70;99.90;;;4.81;96.36;102496.44;5037425;28;20025;-82
2021/03/01 08:33:27;;;;;;;45.58;21.58;;;3.70;99.90;;;4.82;95.99;102492.56;5040106;28;20496;-84
2021/03/01 08:36:14;;;;;;;44.35;18.42;;;3.80;99.90;;;4.96;96.19;102503.94;5044375;28;20048;-83
2021/03/01 08:38:43;;;;;;;46.60;19.40;;;3.80;99.90;;;5.03;95.49;102498.94;5016701;28;20033;-82
2021/03/01 08:41:30;;;;;;;45.17;20.42;;;3.90;99.90;;;5.01;95.14;102498.41;5035943;28;20029;-82
2021/03/01 08:43:59;;;;;;;41.42;18.75;;;3.90;99.90;;;5.06;94.46;102499.22;5047435;28;20032;-84
2021/03/01 08:46:25;;;;;;;41.65;18.35;;;3.90;99.90;;;4.89;94.60;102493.13;5046262;28;20028;-82
2021/03/01 08:48:56;;;;;;;45.50;19.50;;;4.00;99.90;;;4.76;95.23;102499.19;5039313;28;20029;-82
2021/03/01 08:51:27;;;;;;;41.22;19.38;;;3.80;99.90;;;4.84;95.38;102495.06;5069197;28;20044;-82
2021/03/01 08:53:54;;;;;;;33.00;16.42;;;3.90;99.90;;;4.89;94.33;102498.66;5053875;28;20033;-84
2021/03/01 08:56:29;;;;;;;32.45;16.02;;;3.90;99.90;;;4.86;95.00;102503.91;5044877;28;20026;-82
2021/03/01 08:58:55;;;;;;;40.38;18.23;;;3.80;99.90;;;4.65;94.87;102509.44;5045169;28;20060;-82
2021/03/01 09:01:22;;;;;;;41.30;19.92;;;3.80;99.90;;;4.74;95.66;102498.66;5066052;28;20029;-83
2021/03/01 09:03:48;;;;;;;32.55;16.20;;;3.80;99.90;;;4.95;95.32;102502.25;5064101;28;20090;-80
2021/03/01 09:06:21;;;;;;;43.65;17.67;;;3.90;99.90;;;5.09;94.01;102495.91;5052684;28;20461;-83
2021/03/01 09:08:56;;;;;;;42.78;17.95;;;3.90;99.90;;;4.98;93.96;102497.00;5043205;28;20025;-80
2021/03/01 09:11:30;;;;;;;40.53;17.85;;;3.90;99.90;;;5.00;94.62;102500.34;5050626;28;20024;-82
2021/03/01 09:14:04;;;;;;;39.25;18.48;;;3.90;99.90;;;4.87;95.52;102498.09;5064568;28;20025;-81
2021/03/01 09:16:34;;;;;;;39.80;17.65;;;3.90;99.90;;;5.11;95.00;102496.44;5048270;28;20492;-83
2021/03/01 09:19:13;;;;;;;34.70;16.23;;;4.00;99.90;;;5.08;93.86;102497.00;5045830;28;20343;-82
2021/03/01 09:21:43;;;;;;;35.33;17.17;;;4.00;99.90;;;4.97;94.73;102500.06;5048119;28;20037;-83
2021/03/01 09:24:12;;;;;;;36.80;16.00;;;4.00;99.90;;;4.94;94.29;102501.44;5039398;28;20442;-83
2021/03/01 09:26:45;;;;;;;32.97;15.00;;;4.00;99.90;;;5.01;93.58;102492.88;5041030;28;20059;-83
2021/03/01 09:29:17;;;;;;;35.70;16.42;;;4.00;99.90;;;5.06;93.55;102496.47;5053010;28;20428;-84
2021/03/01 09:31:54;;;;;;;34.67;16.58;;;4.00;99.90;;;5.07;94.27;102500.06;5053481;28;20032;-83
2021/03/01 09:34:26;;;;;;;35.38;17.02;;;4.10;99.90;;;5.13;93.41;102494.25;5051620;28;20052;-85
2021/03/01 09:36:52;;;;;;;36.05;16.05;;;4.20;99.90;;;5.12;92.83;102491.75;5055048;28;20029;-83
2021/03/01 09:39:23;;;;;;;31.52;15.65;;;4.20;99.90;;;5.11;93.19;102502.00;5053813;28;20116;-83
2021/03/01 09:41:51;;;;;;;23.17;12.93;;;4.20;99.90;;;5.21;92.64;102499.22;5048302;28;20085;-83
2021/03/01 09:44:28;;;;;;;27.15;13.77;;;4.30;99.90;;;5.11;92.29;102503.94;5060745;28;20332;-83
2021/03/01 09:46:58;;;;;;;25.95;12.73;;;4.30;99.90;;;5.20;91.49;102503.09;5051079;28;20061;-81
2021/03/01 09:49:29;;;;;;;38.83;14.07;;;4.30;99.90;;;5.08;91.13;102507.25;5050966;28;20033;-84
2021/03/01 09:51:56;;;;;;;32.35;15.57;;;4.20;99.90;;;5.12;91.66;102497.28;5045922;28;20053;-85
2021/03/01 09:54:25;;;;;;;31.98;14.93;;;4.20;99.90;;;5.01;92.44;102499.22;5049757;28;20044;-83
2021/03/01 09:56:53;;;;;;;32.45;16.13;;;4.20;99.90;;;5.29;91.30;102500.63;5048262;28;20055;-85
2021/03/01 09:59:44;;;;;;;31.38;15.27;;;4.20;99.90;;;5.31;91.16;102492.84;5055662;28;20412;-84
2021/03/01 10:02:24;;;;;;;34.35;15.73;;;4.20;99.90;;;5.48;91.18;102487.84;5050021;28;20040;-83
2021/03/01 10:05:07;;;;;;;32.13;15.45;;;4.30;99.90;;;5.55;90.94;102482.84;5060594;28;20105;-84
2021/03/01 10:07:33;;;;;;;28.63;15.52;;;4.40;99.90;;;5.56;90.94;102492.81;5046853;28;20068;-85
2021/03/01 10:10:16;;;;;;;33.72;16.23;;;4.50;99.90;;;5.55;90.52;102482.03;5053456;28;20052;-82
2021/03/01 10:12:47;;;;;;;35.17;16.23;;;4.60;99.90;;;5.53;91.17;102492.53;5040909;28;20033;-84
2021/03/01 10:15:14;;;;;;;32.63;15.48;;;4.60;99.90;;;5.75;90.49;102490.25;5052245;28;20461;-86
2021/03/01 10:17:40;;;;;;;29.23;15.05;;;4.70;99.90;;;5.97;89.71;102485.25;5049077;28;20032;-81
2021/03/01 10:20:15;;;;;;;29.77;15.77;;;4.70;99.90;;;6.08;88.80;102491.56;5048754;28;20029;-83
2021/03/01 10:23:05;;;;;;;28.90;14.50;;;4.80;99.90;;;5.82;89.07;102480.56;5041383;28;20028;-86
2021/03/01 10:25:40;;;;;;;27.13;14.10;;;4.80;99.90;;;5.83;88.54;102482.22;5052456;28;20050;-82
2021/03/01 10:28:36;;;;;;;31.83;14.53;;;4.80;99.90;;;5.65;88.77;102484.78;5047166;28;20079;-83
2021/03/01 10:31:13;;;;;;;29.40;14.98;;;4.70;99.90;;;5.62;89.16;102491.69;5046091;28;20025;-83
2021/03/01 10:34:12;;;;;;;30.48;15.63;;;4.60;99.90;;;5.62;89.42;102483.38;5041423;28;20489;-86